• Join FlightAware (Why Join?)
  • Login
  • US Flag 
05:07AM EDT


 

Airport Tracker/Info


-or-


 

Live Flight TrackerFlight Track Log ✈ UPS1121 ✈ 31-Dec-2013 ✈ KALB - KSDF

Flight Track Log - Related Links

Times and Time Zones

All times are in EST time to prevent confusion due to time zone crossing. See the UPS1121 flight status page for this flight to view local times or setup timezone preferences in your user account.

Time Position Orientation Groundspeed Altitude Reporting Facility
EST Latitude Longitude Course Direction KTS MPH feet Rate Location/Type
08:51PM 42.8064 -73.9911 249° West 284 327 13,700  Level Boston Center
08:52PM 42.7767 -74.0947 249° West 312 359 16,600 2,640 Climbing Boston Center
08:53PM 42.7411 -74.2039 246° West 331 381 18,900 2,340 Climbing Boston Center
08:54PM 42.7100 -74.3253 251° West 338 389 21,400 2,280 Climbing Boston Center
08:55PM 42.6772 -74.4478 250° West 343 395 23,700 2,040 Climbing Boston Center
08:56PM 42.6436 -74.5756 250° West 355 409 25,500 2,100 Climbing Boston Center
08:57PM 42.6094 -74.7044 250° West 361 415 27,900 2,700 Climbing Boston Center
08:58PM 42.5764 -74.8275 250° West 350 403 31,000 2,520 Climbing Boston Center
08:59PM 42.5461 -74.9450 251° West 333 383 33,100 1,920 Climbing Boston Center
09:00PM 42.5147 -75.0636 250° West 334 384 35,000 1,440 Climbing Boston Center
09:01PM 42.4831 -75.1850 251° West 341 392 36,000 480 Climbing Boston Center
09:02PM 42.4494 -75.3086 250° West 349 402 36,000  Level Boston Center
09:03PM 42.4142 -75.4328 249° West 352 405 36,000  Level Boston Center
09:04PM 42.3806 -75.5556 250° West 348 400 36,000  Level Boston Center
09:05PM 42.3458 -75.6778 249° West 348 400 36,000  Level Boston Center
09:06PM 42.3117 -75.8008 249° West 348 400 36,000  Level Boston Center
09:07PM 42.2747 -75.9306 249° West 348 400 36,000  Level Boston Center
09:08PM 42.2408 -76.0517 249° West 347 399 36,000  Level Boston Center
09:09PM 42.2069 -76.1600 247° West 349 402 36,000  Level New York Center
09:10PM 42.1722 -76.2831 249° West 349 402 36,000  Level New York Center
09:11PM 42.1397 -76.4033 250° West 344 396 36,000  Level New York Center
09:12PM 42.1047 -76.5206 248° West 344 396 36,000  Level New York Center
09:13PM 42.0742 -76.6353 250° West 344 396 36,000  Level New York Center
09:15PM 42.0081 -76.8622 249° West 333 383 36,000  Level Cleveland Center
09:16PM 41.9736 -76.9783 248° West 334 384 36,000  Level Cleveland Center
09:17PM 41.9394 -77.0947 248° West 335 386 36,000  Level Cleveland Center
09:18PM 41.9056 -77.2111 249° West 335 386 36,000  Level Cleveland Center
09:19PM 41.8717 -77.3256 248° West 331 381 36,000  Level Cleveland Center
09:20PM 41.8289 -77.4644 248° West 335 386 36,000  Level Cleveland Center
09:21PM 41.7925 -77.5681 245° Southwest 336 387 36,000  Level Cleveland Center
09:22PM 41.7539 -77.6800 245° Southwest 335 386 36,000  Level Cleveland Center
09:23PM 41.7150 -77.7914 245° Southwest 333 383 36,000  Level Cleveland Center
09:24PM 41.6761 -77.9028 245° Southwest 333 383 36,000  Level Cleveland Center
09:25PM 41.6389 -78.0150 246° West 332 382 36,000  Level Cleveland Center
09:26PM 41.6008 -78.1261 245° Southwest 330 380 36,000  Level Cleveland Center
09:27PM 41.5544 -78.2589 245° Southwest 330 380 36,000  Level Cleveland Center
09:28PM 41.5161 -78.3692 245° Southwest 330 380 36,000  Level Cleveland Center
09:29PM 41.4775 -78.4769 244° Southwest 326 375 36,000  Level Cleveland Center
09:30PM 41.4392 -78.5844 245° Southwest 325 374 36,000  Level Cleveland Center
09:31PM 41.4003 -78.6911 244° Southwest 324 373 36,000  Level Cleveland Center
09:32PM 41.3594 -78.8047 244° Southwest 324 373 36,000  Level Cleveland Center
09:33PM 41.3208 -78.9147 245° Southwest 328 377 36,000  Level Cleveland Center
09:34PM 41.2842 -79.0150 244° Southwest 328 377 36,000  Level Cleveland Center
09:35PM 41.2447 -79.1228 244° Southwest 328 377 36,000  Level Cleveland Center
09:36PM 41.2053 -79.2322 244° Southwest 330 380 36,000  Level Cleveland Center
09:37PM 41.1619 -79.3503 244° Southwest 330 380 36,000  Level Cleveland Center
09:38PM 41.1219 -79.4586 244° Southwest 328 377 36,000  Level Cleveland Center
09:39PM 41.0811 -79.5686 244° Southwest 332 382 36,000  Level Cleveland Center
09:40PM 41.0408 -79.6778 244° Southwest 330 380 36,000  Level Cleveland Center
09:41PM 41.0008 -79.7878 244° Southwest 333 383 36,000  Level Cleveland Center
09:42PM 40.9594 -79.8978 244° Southwest 333 383 36,000  Level Cleveland Center
09:43PM 40.9178 -80.0058 243° Southwest 331 381 36,000  Level Cleveland Center
09:44PM 40.8703 -80.1372 244° Southwest 330 380 36,000  Level Cleveland Center
09:45PM 40.8333 -80.2361 244° Southwest 329 379 36,000  Level Cleveland Center
09:46PM 40.7914 -80.3431 243° Southwest 328 377 36,000  Level Cleveland Center
09:47PM 40.7528 -80.4522 245° Southwest 324 373 36,000  Level Cleveland Center
09:48PM 40.7122 -80.5611 244° Southwest 325 374 36,000  Level Cleveland Center
09:49PM 40.6700 -80.6681 243° Southwest 324 373 36,000  Level Cleveland Center
09:50PM 40.6286 -80.7750 243° Southwest 325 374 36,000  Level Cleveland Center
09:51PM 40.5889 -80.8814 244° Southwest 325 374 36,000  Level Cleveland Center
09:52PM 40.5478 -80.9869 243° Southwest 327 376 36,000  Level Cleveland Center
09:53PM 40.5058 -81.0944 243° Southwest 330 380 36,000  Level Cleveland Center
09:54PM 40.4642 -81.2019 243° Southwest 332 382 36,000  Level Cleveland Center
09:55PM 40.4233 -81.3097 244° Southwest 332 382 36,000  Level Cleveland Center
09:56PM 40.3753 -81.4278 242° Southwest 333 383 36,000  Level Cleveland Center
09:57PM 40.3528 -81.4828 242° Southwest 333 383 36,000  Level Indianapolis Center
09:58PM 40.3103 -81.5922 243° Southwest 333 383 36,000  Level Indianapolis Center
09:59PM 40.2661 -81.7019 242° Southwest 336 387 36,000  Level Indianapolis Center
10:00PM 40.2219 -81.8164 243° Southwest 334 384 36,000  Level Indianapolis Center
10:01PM 40.1792 -81.9231 242° Southwest 333 383 36,000  Level Indianapolis Center
10:02PM 40.1356 -82.0317 242° Southwest 336 387 36,000  Level Indianapolis Center
10:03PM 40.0931 -82.1389 243° Southwest 334 384 36,000  Level Indianapolis Center
10:04PM 40.0497 -82.2464 242° Southwest 335 386 36,000  Level Indianapolis Center
10:05PM 40.0061 -82.3531 242° Southwest 335 386 36,000  Level Indianapolis Center
10:06PM 39.9611 -82.4611 242° Southwest 338 389 36,000  Level Indianapolis Center
10:07PM 39.9167 -82.5697 242° Southwest 339 390 36,000  Level Indianapolis Center
10:08PM 39.8731 -82.6764 242° Southwest 336 387 36,000  Level Indianapolis Center
10:09PM 39.8283 -82.7853 242° Southwest 340 391 36,000  Level Indianapolis Center
10:10PM 39.7842 -82.8922 242° Southwest 337 388 36,000  Level Indianapolis Center
10:11PM 39.7397 -83.0011 242° Southwest 340 391 36,000 -60 Level Indianapolis Center
10:12PM 39.6953 -83.1078 242° Southwest 337 388 35,900 -720 Descending Indianapolis Center
10:13PM 39.6503 -83.2161 242° Southwest 338 389 34,600 -1,380 Descending Indianapolis Center
10:14PM 39.6047 -83.3267 242° Southwest 343 395 33,200 -1,620 Descending Indianapolis Center
10:15PM 39.5575 -83.4400 242° Southwest 353 406 31,400 -1,620 Descending Indianapolis Center
10:16PM 39.5086 -83.5581 242° Southwest 365 420 30,000 -720 Descending Indianapolis Center
10:17PM 39.4572 -83.6786 241° Southwest 376 433 30,000 -60 Level Indianapolis Center
10:18PM 39.4061 -83.7986 241° Southwest 379 436 29,900 -660 Descending Indianapolis Center
10:19PM 39.3558 -83.9178 241° Southwest 378 435 28,700 -1,320 Descending Indianapolis Center
10:20PM 39.3036 -84.0411 241° Southwest 386 444 27,300 -1,500 Descending Indianapolis Center
10:21PM 39.2486 -84.1667 241° Southwest 397 457 25,700 -1,560 Descending Indianapolis Center
10:22PM 39.1931 -84.2958 241° Southwest 407 468 24,200 -900 Descending Indianapolis Center
10:23PM 39.1269 -84.4506 241° Southwest 411 473 24,000 -120 Descending Indianapolis Center
10:24PM 39.0717 -84.5786 241° Southwest 410 472 24,000 -60 Level Indianapolis Center
10:25PM 39.0131 -84.7050 239° Southwest 411 473 23,900 -1,380 Descending Indianapolis Center
10:26PM 38.9208 -84.7958 217° Southwest 416 479 21,300 -3,180 Descending Indianapolis Center
10:27PM 38.8325 -84.8808 217° Southwest 404 465 17,500 -4,500 Descending Indianapolis Center
10:28PM 38.7536 -84.9581 217° Southwest 370 426 12,300 -2,820 Descending Indianapolis Center
10:29PM 38.6719 -85.0367 217° Southwest 366 421 11,900 -180 Descending Indianapolis Center
10:30PM 38.5819 -85.1239 217° Southwest 371 427 12,000 -300 Climbing Indianapolis Center
10:31PM 38.4975 -85.2042 217° Southwest 375 432 11,400 -600 Descending Indianapolis Center
10:32PM 38.4231 -85.2739 216° Southwest 374 430 10,800 -720 Descending Indianapolis Center
10:33PM 38.3625 -85.3433 222° Southwest 307 353 10,000 -1,680 Descending Indianapolis Center
10:34PM 38.3781 -85.4231 284° West 244 281 7,500 -2,100 Descending Indianapolis Center
10:35PM 38.4042 -85.5042 292° West 245 282 5,800 -1,320 Descending Indianapolis Center
10:36PM 38.4208 -85.5858 285° West 241 277 4,900 -1,080 Descending Indianapolis Center
10:37PM 38.4050 -85.6669 256° West 238 274 3,700 -960 Descending Indianapolis Center
10:38PM 38.3936 -85.7453 260° West 230 265 3,000 -600 Descending Indianapolis Center
10:39PM 38.3411 -85.7767 205° Southwest 218 251 2,500 -300 Descending Indianapolis Center
10:40PM 38.2867 -85.7828 185° South 208 239 2,500  Level Indianapolis Center
10:41PM 38.2317 -85.7664 167° South 198 228 2,500  Level Indianapolis Center
10:43PM 38.1741 -85.7365 208° Southwest  Level Estimated
10:50PM 38.1741 -85.7365 208° Southwest  Level Estimated